Time;durP1;ratioP1;P1;durP2;ratioP2;P2;SDS_P1;SDS_P2;PMS_P1;PMS_P2;Temp;Humidity;BMP_temperature;BMP_pressure;BME280_temperature;BME280_humidity;BME280_pressure;Samples;Min_cycle;Max_cycle;Signal;HPM_P1;HPM_P2
2022/12/30 04:51:53;;;;;;;15.10;3.50;;;12.70;64.90;;;;;;4825046;29;20054;-72
2022/12/30 04:54:18;;;;;;;9.57;2.70;;;12.70;64.90;;;;;;4824838;29;20054;-69
2022/12/30 04:56:44;;;;;;;12.82;2.50;;;12.70;65.00;;;;;;4826088;29;20367;-71
2022/12/30 04:59:10;;;;;;;11.75;2.70;;;12.70;65.40;;;;;;4826468;29;20097;-69
2022/12/30 05:01:36;;;;;;;9.30;2.28;;;12.70;65.80;;;;;;4826572;29;20058;-73
2022/12/30 05:04:01;;;;;;;18.17;2.80;;;12.80;65.90;;;;;;4838238;29;20057;-77
2022/12/30 05:06:33;;;;;;;13.90;3.13;;;12.90;66.10;;;;;;4829039;29;20058;-72
2022/12/30 05:08:59;;;;;;;15.25;3.10;;;13.10;66.50;;;;;;4844656;29;20038;-73
2022/12/30 05:11:25;;;;;;;18.45;2.78;;;13.30;66.80;;;;;;4844189;29;20437;-72
2022/12/30 05:13:50;;;;;;;16.30;2.60;;;13.40;66.70;;;;;;4816659;29;20049;-74
2022/12/30 05:16:18;;;;;;;19.27;3.13;;;13.60;66.70;;;;;;4826645;29;20195;-75
2022/12/30 05:18:44;;;;;;;17.33;3.22;;;13.80;66.80;;;;;;4826416;29;20137;-72
2022/12/30 05:21:09;;;;;;;12.65;2.53;;;13.90;66.60;;;;;;4826490;29;20183;-74
2022/12/30 05:26:22;;;;;;;19.42;3.05;;;14.20;67.00;;;;;;4843875;29;20049;-71
2022/12/30 05:28:49;;;;;;;10.50;2.88;;;14.20;67.00;;;;;;4844171;29;20061;-73
2022/12/30 05:31:17;;;;;;;9.32;2.15;;;14.30;66.90;;;;;;4843692;29;20062;-71
2022/12/30 05:33:44;;;;;;;9.05;2.40;;;14.40;66.80;;;;;;4835158;29;20046;-73
2022/12/30 05:36:11;;;;;;;11.40;2.22;;;14.50;66.60;;;;;;4826360;29;20054;-72
2022/12/30 05:38:37;;;;;;;8.10;1.70;;;14.60;66.40;;;;;;4825936;29;20046;-73
2022/12/30 05:41:03;;;;;;;13.27;3.35;;;14.70;66.20;;;;;;4809709;29;20057;-71
2022/12/30 05:43:28;;;;;;;10.07;2.75;;;14.70;66.10;;;;;;4832789;29;20083;-72
2022/12/30 05:45:54;;;;;;;16.30;2.75;;;14.80;66.30;;;;;;4843531;29;20057;-72
2022/12/30 05:48:20;;;;;;;13.25;2.55;;;14.80;66.30;;;;;;4829717;29;20093;-72
2022/12/30 05:50:48;;;;;;;10.90;2.72;;;14.90;66.60;;;;;;4835881;29;20057;-77
2022/12/30 05:53:14;;;;;;;7.13;2.70;;;15.00;66.80;;;;;;4849246;29;20065;-71
2022/12/30 05:55:40;;;;;;;10.07;2.28;;;15.10;66.80;;;;;;4843812;29;20450;-72
2022/12/30 05:58:06;;;;;;;17.20;3.28;;;15.20;67.00;;;;;;4865790;29;20041;-72
2022/12/30 06:00:31;;;;;;;9.82;2.40;;;15.20;66.90;;;;;;4864556;29;20045;-73
2022/12/30 06:02:57;;;;;;;9.00;2.15;;;15.20;67.20;;;;;;4880781;29;20052;-74
2022/12/30 06:05:23;;;;;;;12.10;2.00;;;15.30;67.30;;;;;;4881223;29;20059;-71
2022/12/30 06:07:49;;;;;;;15.52;2.85;;;15.40;67.30;;;;;;4880906;29;20475;-74
2022/12/30 06:10:15;;;;;;;14.90;2.20;;;15.40;66.70;;;;;;4861860;29;20354;-72
2022/12/30 06:12:41;;;;;;;15.35;3.08;;;15.50;67.50;;;;;;4862135;29;20109;-72
2022/12/30 06:15:07;;;;;;;12.32;2.53;;;15.60;67.60;;;;;;4862134;29;20422;-74
2022/12/30 06:17:33;;;;;;;15.02;2.67;;;15.60;67.60;;;;;;4845777;29;20189;-72
2022/12/30 06:19:59;;;;;;;16.38;3.15;;;15.70;67.70;;;;;;4845537;29;20148;-72
2022/12/30 06:22:24;;;;;;;14.25;2.72;;;15.80;68.10;;;;;;4861593;29;20132;-75
2022/12/30 06:24:50;;;;;;;20.67;2.60;;;15.90;68.00;;;;;;4846691;29;20461;-73
2022/12/30 06:27:16;;;;;;;13.93;2.65;;;15.90;67.70;;;;;;4849722;29;20072;-75
2022/12/30 06:29:41;;;;;;;18.95;2.33;;;16.00;67.60;;;;;;4866137;29;20369;-71
2022/12/30 06:32:07;;;;;;;13.60;3.05;;;16.00;67.40;;;;;;4865535;29;20117;-76
2022/12/30 06:34:33;;;;;;;18.27;2.80;;;16.10;67.40;;;;;;4865161;29;20045;-74
2022/12/30 06:36:59;;;;;;;10.43;2.10;;;16.10;67.40;;;;;;4864846;29;20049;-73
2022/12/30 06:39:25;;;;;;;16.83;2.97;;;16.20;67.40;;;;;;4865378;29;20453;-74
2022/12/30 06:41:51;;;;;;;17.17;2.78;;;16.20;67.50;;;;;;4865298;29;20132;-73
2022/12/30 06:44:16;;;;;;;12.63;2.28;;;16.20;67.40;;;;;;4864084;29;20391;-73
2022/12/30 06:46:42;;;;;;;13.60;2.53;;;16.20;67.40;;;;;;4862776;29;20057;-76
2022/12/30 06:49:08;;;;;;;8.73;2.22;;;16.20;67.60;;;;;;4848467;29;20089;-74
2022/12/30 06:51:34;;;;;;;13.82;1.83;;;16.20;67.40;;;;;;4864057;29;20057;-74
2022/12/30 06:54:00;;;;;;;18.48;2.80;;;16.20;67.20;;;;;;4863935;29;20053;-76
2022/12/30 06:56:25;;;;;;;16.90;3.10;;;16.10;66.90;;;;;;4865093;29;20046;-74
2022/12/30 06:58:51;;;;;;;17.10;2.90;;;16.10;66.50;;;;;;4864051;29;20053;-75
2022/12/30 07:01:17;;;;;;;25.88;3.95;;;16.00;65.90;;;;;;4865276;29;20349;-75
2022/12/30 07:03:43;;;;;;;19.83;2.90;;;15.90;65.50;;;;;;4855606;29;20046;-77
2022/12/30 07:06:08;;;;;;;14.68;2.72;;;15.90;65.60;;;;;;4845689;29;20125;-78
2022/12/30 07:08:34;;;;;;;18.08;2.80;;;15.80;65.80;;;;;;4846815;29;20393;-75
2022/12/30 07:11:00;;;;;;;19.77;2.72;;;15.80;66.10;;;;;;4846401;29;20057;-78
2022/12/30 07:13:26;;;;;;;17.15;3.17;;;15.70;65.20;;;;;;4849808;29;20046;-77
2022/12/30 07:15:52;;;;;;;17.13;2.53;;;15.40;64.90;;;;;;4861154;29;20354;-79
2022/12/30 07:18:18;;;;;;;24.83;3.50;;;15.40;66.00;;;;;;4873120;29;20041;-76
2022/12/30 07:20:44;;;;;;;15.20;2.65;;;15.40;66.50;;;;;;4874225;29;20456;-75
2022/12/30 07:23:10;;;;;;;23.08;3.78;;;15.40;66.80;;;;;;4870538;29;20049;-78
2022/12/30 07:25:35;;;;;;;22.05;4.07;;;15.40;67.00;;;;;;4850957;29;20041;-74
2022/12/30 07:28:03;;;;;;;13.13;2.35;;;15.40;67.10;;;;;;4869573;29;20052;-75
2022/12/30 07:30:30;;;;;;;14.25;2.95;;;15.30;67.10;;;;;;4864680;29;20061;-76
2022/12/30 07:32:57;;;;;;;16.67;3.03;;;15.30;67.20;;;;;;4863326;29;20046;-78
2022/12/30 07:35:23;;;;;;;21.40;3.65;;;15.30;66.70;;;;;;4864056;29;20136;-76
2022/12/30 07:37:50;;;;;;;16.00;2.90;;;15.30;65.40;;;;;;4863377;29;20049;-76
2022/12/30 07:40:16;;;;;;;14.98;2.95;;;15.30;64.90;;;;;;4872547;29;20488;-77
2022/12/30 07:42:41;;;;;;;17.65;3.28;;;15.30;64.40;;;;;;4871044;29;20199;-76
2022/12/30 07:45:08;;;;;;;12.73;2.42;;;15.20;63.90;;;;;;4872017;29;20037;-75
2022/12/30 07:47:34;;;;;;;9.07;2.75;;;15.20;63.60;;;;;;4865800;29;20068;-74
2022/12/30 07:50:01;;;;;;;10.88;2.65;;;15.20;63.20;;;;;;4871489;29;20100;-74
2022/12/30 07:52:27;;;;;;;8.77;2.63;;;15.10;62.80;;;;;;4876530;29;20099;-75
2022/12/30 07:54:53;;;;;;;8.77;2.20;;;15.10;62.60;;;;;;4864273;29;20133;-76
2022/12/30 07:57:18;;;;;;;7.78;2.22;;;15.10;62.30;;;;;;4864281;29;20158;-77
2022/12/30 07:59:44;;;;;;;11.93;2.17;;;15.00;62.10;;;;;;4864026;29;20092;-74
2022/12/30 08:02:11;;;;;;;9.55;2.65;;;15.00;61.90;;;;;;4868933;29;20083;-77
2022/12/30 08:04:37;;;;;;;5.68;2.25;;;14.90;61.70;;;;;;4870161;29;20045;-76
2022/12/30 08:07:03;;;;;;;8.15;2.13;;;14.90;61.50;;;;;;4873210;29;20128;-76
2022/12/30 08:09:28;;;;;;;8.00;1.88;;;14.90;61.40;;;;;;4871786;29;20124;-76
2022/12/30 08:11:54;;;;;;;13.02;2.72;;;14.80;61.20;;;;;;4869640;29;20544;-76
2022/12/30 08:14:20;;;;;;;10.75;3.08;;;14.80;61.30;;;;;;4870618;29;20061;-73
2022/12/30 08:16:46;;;;;;;9.30;2.65;;;14.70;61.40;;;;;;4847471;29;20060;-75
2022/12/30 08:19:11;;;;;;;8.32;2.00;;;14.70;61.40;;;;;;4865963;29;20056;-73
2022/12/30 08:21:37;;;;;;;9.60;2.20;;;14.70;61.60;;;;;;4871848;29;20045;-73
2022/12/30 08:24:03;;;;;;;8.45;2.10;;;14.70;62.00;;;;;;4873298;29;20041;-75
2022/12/30 08:26:29;;;;;;;11.73;2.03;;;14.70;62.30;;;;;;4871929;29;20116;-76
2022/12/30 08:28:55;;;;;;;9.95;2.13;;;14.70;62.90;;;;;;4871907;29;20193;-73
2022/12/30 08:31:24;;;;;;;14.50;2.85;;;14.70;63.00;;;;;;4848849;29;20053;-75
2022/12/30 08:33:51;;;;;;;9.88;2.53;;;14.70;63.50;;;;;;4872731;29;20037;-76
2022/12/30 08:36:22;;;;;;;10.43;2.05;;;14.70;63.60;;;;;;4871059;29;20038;-76
2022/12/30 08:38:51;;;;;;;10.82;2.13;;;14.70;63.70;;;;;;4863205;29;20042;-71
2022/12/30 08:41:22;;;;;;;9.07;2.22;;;14.70;63.60;;;;;;4853020;29;20129;-70
2022/12/30 08:43:49;;;;;;;6.85;1.80;;;14.70;63.10;;;;;;4870269;29;20049;-70
2022/12/30 08:46:23;;;;;;;8.38;1.75;;;14.70;62.70;;;;;;4871980;29;20132;-70
2022/12/30 08:48:50;;;;;;;7.38;1.95;;;14.60;62.30;;;;;;4847169;29;20041;-70
2022/12/30 08:51:16;;;;;;;12.20;2.70;;;14.60;62.20;;;;;;4868401;29;20061;-76
2022/12/30 08:53:43;;;;;;;7.32;2.45;;;14.60;62.10;;;;;;4863236;29;20053;-76
2022/12/30 08:56:17;;;;;;;9.57;2.13;;;14.50;61.90;;;;;;4863085;29;20060;-75
2022/12/30 08:58:43;;;;;;;8.18;2.22;;;14.50;61.90;;;;;;4862938;29;20061;-76
2022/12/30 09:01:11;;;;;;;7.70;2.53;;;14.50;61.80;;;;;;4844029;29;20085;-76
2022/12/30 09:03:38;;;;;;;11.00;2.38;;;14.50;61.70;;;;;;4871345;29;20128;-73
2022/12/30 09:06:05;;;;;;;4.93;1.48;;;14.50;61.60;;;;;;4868159;29;20052;-72
2022/12/30 09:08:31;;;;;;;8.23;2.28;;;14.40;61.40;;;;;;4870697;29;20053;-71
2022/12/30 09:11:04;;;;;;;8.70;2.15;;;14.40;61.30;;;;;;4872920;29;20384;-75
2022/12/30 09:13:31;;;;;;;7.72;2.30;;;14.40;61.30;;;;;;4871882;29;20124;-74
2022/12/30 09:15:58;;;;;;;10.13;2.55;;;14.30;61.30;;;;;;4871404;29;20473;-75
2022/12/30 09:18:24;;;;;;;8.55;2.55;;;14.20;61.30;;;;;;4866628;29;20089;-76
2022/12/30 09:20:50;;;;;;;7.10;1.60;;;14.20;61.60;;;;;;4869636;29;20044;-70
2022/12/30 09:23:16;;;;;;;6.50;1.77;;;14.30;62.00;;;;;;4868351;29;20051;-79
2022/12/30 09:25:42;;;;;;;12.77;3.03;;;14.30;62.20;;;;;;4866500;29;20061;-71
2022/12/30 09:28:08;;;;;;;8.10;2.13;;;14.30;62.40;;;;;;4869999;29;20041;-77
2022/12/30 09:30:33;;;;;;;10.98;1.67;;;14.30;62.70;;;;;;4854988;29;20127;-75
2022/12/30 09:32:59;;;;;;;9.40;1.70;;;14.30;62.70;;;;;;4867074;29;20042;-72
2022/12/30 09:35:25;;;;;;;10.48;2.50;;;14.40;63.00;;;;;;4865126;29;20131;-71
2022/12/30 09:37:51;;;;;;;9.48;1.83;;;14.40;63.20;;;;;;4870247;29;20053;-77
2022/12/30 09:40:23;;;;;;;9.48;2.85;;;14.40;63.20;;;;;;4871064;29;20049;-74
2022/12/30 09:45:58;;;;;;;11.80;2.40;;;14.40;62.70;;;;;;4867132;29;20359;-75
2022/12/30 09:48:30;;;;;;;10.88;2.50;;;14.40;62.50;;;;;;4862556;29;20045;-76
2022/12/30 09:51:02;;;;;;;11.43;3.40;;;14.30;62.30;;;;;;4860571;29;20073;-78
2022/12/30 09:53:54;;;;;;;17.95;3.15;;;14.30;62.30;;;;;;4860972;29;20101;-75
2022/12/30 09:56:30;;;;;;;27.95;3.70;;;14.30;62.60;;;;;;4859772;29;20469;-74
2022/12/30 09:59:03;;;;;;;13.98;2.67;;;14.30;63.00;;;;;;4830707;29;20461;-77
2022/12/30 10:01:38;;;;;;;17.77;3.10;;;14.30;63.10;;;;;;4863291;29;20132;-73
2022/12/30 10:04:11;;;;;;;13.48;2.30;;;14.30;63.60;;;;;;4865778;29;20365;-79
2022/12/30 10:06:43;;;;;;;22.70;4.00;;;14.30;62.40;;;;;;4834508;29;20061;-75
2022/12/30 10:09:37;;;;;;;17.13;3.42;;;14.30;61.70;;;;;;4864792;29;20069;-74
2022/12/30 10:12:24;;;;;;;17.63;3.63;;;14.30;62.10;;;;;;4845852;29;20045;-74
2022/12/30 10:15:03;;;;;;;16.02;3.28;;;14.30;62.60;;;;;;4847738;29;20110;-77
2022/12/30 10:17:37;;;;;;;25.05;3.55;;;14.20;63.80;;;;;;4847347;29;20049;-74
2022/12/30 10:20:15;;;;;;;15.50;2.88;;;14.30;64.10;;;;;;4847031;29;20050;-75
2022/12/30 10:22:53;;;;;;;14.50;2.97;;;14.50;64.10;;;;;;4847356;29;20038;-75
2022/12/30 10:25:29;;;;;;;22.75;3.50;;;14.60;64.50;;;;;;4861701;29;20406;-77
2022/12/30 10:27:56;;;;;;;18.45;3.33;;;14.70;64.50;;;;;;4847348;29;20121;-71
2022/12/30 10:30:33;;;;;;;17.10;3.05;;;14.80;64.50;;;;;;4847160;29;20054;-75
2022/12/30 10:33:04;;;;;;;16.77;2.97;;;14.90;66.00;;;;;;4865365;29;20049;-75
2022/12/30 10:35:32;;;;;;;20.88;3.38;;;15.00;67.60;;;;;;4865372;29;20053;-70
2022/12/30 10:38:15;;;;;;;14.15;3.05;;;15.00;69.50;;;;;;4864681;29;20162;-74
2022/12/30 10:41:20;;;;;;;13.88;2.80;;;15.00;69.70;;;;;;4845294;29;20105;-76
2022/12/30 10:44:00;;;;;;;18.00;2.65;;;15.10;69.80;;;;;;4876581;29;20092;-76
2022/12/30 10:46:40;;;;;;;14.07;2.85;;;15.20;69.50;;;;;;4875962;29;20091;-73
2022/12/30 10:49:15;;;;;;;10.52;2.25;;;15.20;70.00;;;;;;4845345;29;20114;-74
2022/12/30 10:51:41;;;;;;;19.65;2.80;;;15.20;70.40;;;;;;4849961;29;20064;-76
2022/12/30 10:54:09;;;;;;;13.38;2.17;;;15.30;70.30;;;;;;4876442;29;20068;-75
2022/12/30 10:56:36;;;;;;;14.85;2.45;;;15.30;70.20;;;;;;4846774;29;20049;-74
2022/12/30 10:59:10;;;;;;;14.52;2.35;;;15.40;70.50;;;;;;4847376;29;20062;-73
2022/12/30 11:01:37;;;;;;;7.75;1.90;;;15.50;70.60;;;;;;4847069;29;20149;-72
2022/12/30 11:04:03;;;;;;;13.55;3.13;;;15.60;70.40;;;;;;4845108;29;20057;-71
2022/12/30 11:06:32;;;;;;;16.30;2.75;;;15.70;70.50;;;;;;4870939;29;20049;-75
2022/12/30 11:09:13;;;;;;;10.32;2.42;;;15.80;70.00;;;;;;4850872;29;20370;-73
2022/12/30 11:14:42;;;;;;;12.02;2.08;;;15.90;68.40;;;;;;4865387;29;20057;-72
2022/12/30 11:17:16;;;;;;;12.25;2.55;;;16.00;67.70;;;;;;4864662;29;20057;-73
2022/12/30 11:19:43;;;;;;;;;;;16.00;67.40;;;;;;4865330;29;20041;-74
2022/12/30 11:22:10;;;;;;;24.35;2.83;;;16.10;67.30;;;;;;4848622;29;20260;-73
2022/12/30 11:24:37;;;;;;;13.88;2.47;;;16.10;67.40;;;;;;4846153;29;20145;-77
2022/12/30 11:27:03;;;;;;;12.98;2.83;;;16.10;67.20;;;;;;4845997;29;20062;-72
2022/12/30 11:29:33;;;;;;;13.05;1.92;;;16.10;66.90;;;;;;4876046;29;20140;-75
2022/12/30 11:32:07;;;;;;;9.25;2.03;;;16.10;66.40;;;;;;4848140;29;20053;-75
2022/12/30 11:34:34;;;;;;;;;;;16.20;66.00;;;;;;4864852;29;20049;-74
2022/12/30 11:37:19;;;;;;;18.15;3.08;;;16.10;64.90;;;;;;4864777;29;19924;-74
2022/12/30 11:39:45;;;;;;;15.00;1.98;;;16.20;64.70;;;;;;4865940;29;20106;-75
2022/12/30 11:42:29;;;;;;;17.48;3.22;;;16.10;64.20;;;;;;4863656;29;20057;-73
2022/12/30 11:45:31;;;;;;;15.18;2.55;;;16.20;64.30;;;;;;4850218;29;20056;-74
2022/12/30 11:47:58;;;;;;;13.63;2.13;;;16.20;64.70;;;;;;4825811;29;20099;-73
2022/12/30 11:50:24;;;;;;;14.95;2.60;;;16.30;64.70;;;;;;4855496;29;20145;-74
2022/12/30 11:52:52;;;;;;;11.35;2.35;;;16.30;64.70;;;;;;4866453;29;20381;-73
2022/12/30 11:55:34;;;;;;;28.17;3.15;;;16.40;64.80;;;;;;4864277;29;20122;-74
2022/12/30 11:58:01;;;;;;;13.50;2.20;;;16.40;64.80;;;;;;4863855;29;20136;-74
2022/12/30 12:00:38;;;;;;;13.90;2.28;;;16.40;64.90;;;;;;4846871;29;20053;-74
2022/12/30 12:03:14;;;;;;;6.43;1.42;;;16.40;64.90;;;;;;4864713;29;20053;-74
2022/12/30 12:05:42;;;;;;;12.95;1.90;;;16.50;65.10;;;;;;4864008;29;20085;-75
2022/12/30 12:08:19;;;;;;;15.70;2.25;;;16.50;64.80;;;;;;4862907;29;20132;-75
2022/12/30 12:11:00;;;;;;;16.13;2.65;;;16.50;64.90;;;;;;4859743;29;20042;-73
2022/12/30 12:13:47;;;;;;;17.52;2.80;;;16.50;64.80;;;;;;4845189;29;20045;-75
2022/12/30 12:16:25;;;;;;;14.15;2.30;;;16.50;65.40;;;;;;4845314;29;20061;-73
2022/12/30 12:19:00;;;;;;;13.70;2.33;;;16.50;65.70;;;;;;4844867;29;20069;-74
2022/12/30 12:21:28;;;;;;;12.18;2.22;;;16.50;65.90;;;;;;4865223;29;20410;-75
2022/12/30 12:24:28;;;;;;;15.15;1.88;;;16.50;65.80;;;;;;4871884;29;20045;-74
2022/12/30 12:27:12;;;;;;;11.25;2.08;;;16.50;65.80;;;;;;4852470;29;20064;-75
2022/12/30 12:29:38;;;;;;;12.35;2.90;;;16.50;65.80;;;;;;4864004;29;20052;-74
2022/12/30 12:32:35;;;;;;;12.13;2.33;;;16.40;65.90;;;;;;4872367;29;20049;-75
2022/12/30 12:35:21;;;;;;;14.60;1.98;;;16.40;65.90;;;;;;4863650;29;20092;-74
2022/12/30 12:38:15;;;;;;;10.15;1.73;;;16.50;65.90;;;;;;4847243;29;20434;-74
2022/12/30 12:41:07;;;;;;;16.40;2.70;;;16.40;65.80;;;;;;4861056;29;20136;-75
2022/12/30 12:43:53;;;;;;;12.60;1.92;;;16.40;65.80;;;;;;4827363;29;20161;-72
2022/12/30 12:46:40;;;;;;;11.27;1.58;;;16.40;66.10;;;;;;4810158;29;20062;-73
2022/12/30 12:49:20;;;;;;;9.50;2.13;;;16.30;65.10;;;;;;4847536;29;20172;-73
2022/12/30 12:52:01;;;;;;;17.60;2.10;;;16.20;64.50;;;;;;4865077;29;20453;-74
2022/12/30 12:54:46;;;;;;;9.15;1.90;;;16.20;64.00;;;;;;4863609;29;20117;-75
2022/12/30 12:57:35;;;;;;;9.63;2.28;;;16.10;63.40;;;;;;4863328;29;20057;-74
2022/12/30 13:00:16;;;;;;;15.15;1.73;;;16.10;63.40;;;;;;4863782;29;20395;-74
2022/12/30 13:03:09;;;;;;;10.65;1.95;;;16.00;62.40;;;;;;4854154;29;20049;-76
2022/12/30 13:05:41;;;;;;;13.68;1.73;;;15.90;61.40;;;;;;4850207;29;20046;-77
2022/12/30 13:08:37;;;;;;;7.30;1.40;;;15.90;61.40;;;;;;4847551;29;20049;-78
2022/12/30 13:11:09;;;;;;;11.02;1.50;;;15.90;61.60;;;;;;4863989;29;20060;-76
2022/12/30 13:14:02;;;;;;;11.43;2.22;;;15.70;61.40;;;;;;4871881;29;20084;-74
2022/12/30 13:16:40;;;;;;;9.25;1.67;;;15.70;61.90;;;;;;4847719;29;20064;-71
2022/12/30 13:19:13;;;;;;;12.98;1.50;;;15.70;62.10;;;;;;4864639;29;20077;-74
2022/12/30 13:37:16;;;;;;;9.10;1.58;;;15.60;62.40;;;;;;4736887;30;20044;-76
2022/12/30 13:39:52;;;;;;;5.43;1.30;;;15.70;62.60;;;;;;4719410;30;20052;-73
2022/12/30 13:42:55;;;;;;;7.93;1.60;;;15.70;62.70;;;;;;4729237;29;20071;-79
2022/12/30 13:45:31;;;;;;;17.45;2.22;;;15.80;62.70;;;;;;4853542;29;20410;-78
2022/12/30 13:48:13;;;;;;;7.65;1.73;;;15.90;62.90;;;;;;4870481;29;20063;-77
2022/12/30 13:50:41;;;;;;;9.63;1.75;;;16.00;63.10;;;;;;4869074;29;20069;-79
2022/12/30 13:53:34;;;;;;;9.43;1.75;;;16.10;63.20;;;;;;4867351;29;20064;-78
2022/12/30 13:56:37;;;;;;;7.82;1.38;;;16.20;63.20;;;;;;4847021;29;20138;-79
2022/12/30 13:59:04;;;;;;;10.88;1.80;;;16.30;63.20;;;;;;4866794;29;20045;-78
2022/12/30 14:01:39;;;;;;;8.68;1.25;;;16.30;63.30;;;;;;4862515;29;20049;-77
2022/12/30 14:04:29;;;;;;;10.02;2.00;;;16.30;63.30;;;;;;4852095;29;20045;-78
2022/12/30 14:07:03;;;;;;;6.70;1.40;;;16.20;63.40;;;;;;4863198;29;20049;-79
2022/12/30 14:09:31;;;;;;;9.40;1.83;;;16.20;63.70;;;;;;4867518;29;20041;-80
2022/12/30 14:12:05;;;;;;;10.77;1.50;;;16.10;63.80;;;;;;4869593;29;20037;-79
2022/12/30 14:14:33;;;;;;;8.02;1.08;;;16.10;64.20;;;;;;4868882;29;20047;-78
2022/12/30 14:17:03;;;;;;;6.22;1.77;;;16.10;64.30;;;;;;4850420;29;20060;-79
2022/12/30 14:19:51;;;;;;;7.75;1.35;;;16.00;65.10;;;;;;4867141;29;20053;-80
2022/12/30 14:22:39;;;;;;;5.35;1.05;;;16.00;64.70;;;;;;4862586;29;20060;-78
2022/12/30 14:25:25;;;;;;;8.02;1.33;;;15.90;64.80;;;;;;4866992;29;20053;-79
2022/12/30 14:28:12;;;;;;;5.10;1.58;;;15.90;65.00;;;;;;4854678;29;20068;-79
2022/12/30 14:30:52;;;;;;;6.70;1.33;;;15.90;65.40;;;;;;4862076;29;20061;-76
2022/12/30 14:33:36;;;;;;;17.02;1.83;;;15.80;64.60;;;;;;4842689;29;20049;-77
2022/12/30 14:36:05;;;;;;;5.93;1.40;;;15.80;65.30;;;;;;4853720;29;20380;-73
2022/12/30 14:38:36;;;;;;;6.95;1.40;;;15.80;65.30;;;;;;4859373;29;20369;-76
2022/12/30 14:41:08;;;;;;;9.18;1.50;;;15.90;65.40;;;;;;4855653;29;20052;-75
2022/12/30 14:43:53;;;;;;;6.32;1.27;;;16.00;65.30;;;;;;4861617;29;20121;-74
2022/12/30 14:46:32;;;;;;;6.75;1.45;;;16.00;64.80;;;;;;4847052;29;20067;-79
2022/12/30 14:49:03;;;;;;;5.20;1.10;;;16.10;64.80;;;;;;4865382;29;20146;-77
2022/12/30 14:51:30;;;;;;;7.20;1.38;;;16.10;64.60;;;;;;4848613;29;20050;-73
2022/12/30 14:53:56;;;;;;;8.20;1.10;;;16.10;64.70;;;;;;4848264;29;20056;-80
2022/12/30 14:56:23;;;;;;;10.02;1.17;;;16.20;64.80;;;;;;4864986;29;20428;-76
2022/12/30 14:58:49;;;;;;;12.30;2.47;;;16.20;64.80;;;;;;4865326;29;20049;-79
2022/12/30 15:01:19;;;;;;;5.85;1.40;;;16.30;64.90;;;;;;4864902;29;20483;-77
2022/12/30 15:03:45;;;;;;;9.77;1.75;;;16.30;65.00;;;;;;4864177;29;20526;-75
2022/12/30 15:06:14;;;;;;;10.85;1.63;;;16.30;65.20;;;;;;4864872;29;20128;-77
2022/12/30 15:08:41;;;;;;;5.72;1.30;;;16.30;66.00;;;;;;4850261;29;20052;-76
2022/12/30 15:11:20;;;;;;;14.70;2.60;;;16.30;66.40;;;;;;4869614;29;20053;-77
2022/12/30 15:13:55;;;;;;;18.02;2.47;;;16.40;68.10;;;;;;4848432;29;20138;-77
2022/12/30 15:16:26;;;;;;;17.63;2.95;;;16.30;68.20;;;;;;4846635;29;20045;-79
2022/12/30 15:18:54;;;;;;;14.73;3.85;;;16.30;69.50;;;;;;4847115;29;20053;-79
2022/12/30 15:21:34;;;;;;;14.15;3.00;;;16.30;69.90;;;;;;4846071;29;20050;-79
2022/12/30 15:23:59;;;;;;;15.38;4.28;;;16.30;70.20;;;;;;4846518;29;20050;-78
2022/12/30 15:26:37;;;;;;;17.65;4.70;;;16.30;71.50;;;;;;4846508;29;20046;-76
2022/12/30 15:29:14;;;;;;;15.77;4.25;;;16.30;74.70;;;;;;4852542;29;20058;-75
2022/12/30 15:31:40;;;;;;;13.73;4.13;;;16.30;73.20;;;;;;4864437;29;20468;-74
2022/12/30 15:34:07;;;;;;;11.10;4.05;;;16.30;73.80;;;;;;4862665;29;20117;-75
2022/12/30 15:36:36;;;;;;;14.88;4.32;;;16.30;75.50;;;;;;4864031;29;20129;-80
2022/12/30 15:39:06;;;;;;;24.90;4.05;;;16.30;75.50;;;;;;4864513;29;20133;-75
2022/12/30 15:41:35;;;;;;;19.77;3.53;;;16.30;75.80;;;;;;4864299;29;20124;-76
2022/12/30 15:44:07;;;;;;;16.55;3.15;;;16.30;74.00;;;;;;4863421;29;20037;-78
2022/12/30 15:46:37;;;;;;;14.70;3.45;;;16.20;72.10;;;;;;4846063;29;20045;-76
2022/12/30 15:49:18;;;;;;;15.75;2.85;;;16.20;72.60;;;;;;4846018;29;20042;-77
2022/12/30 15:51:48;;;;;;;10.10;2.00;;;16.20;72.20;;;;;;4829161;29;20072;-77
2022/12/30 15:54:27;;;;;;;16.67;2.47;;;16.20;70.70;;;;;;4831611;29;20069;-77
2022/12/30 15:56:55;;;;;;;11.30;2.42;;;16.20;70.50;;;;;;4863977;29;20061;-76
2022/12/30 15:59:47;;;;;;;12.75;2.20;;;16.20;70.40;;;;;;4863608;29;20124;-77
2022/12/30 16:02:42;;;;;;;10.73;1.95;;;16.20;70.80;;;;;;4864022;29;20064;-77
2022/12/30 16:05:21;;;;;;;8.93;2.28;;;16.30;71.10;;;;;;4853483;29;20488;-76
2022/12/30 16:07:47;;;;;;;11.20;1.85;;;16.30;70.90;;;;;;4845754;29;20089;-76
2022/12/30 16:10:22;;;;;;;13.38;1.92;;;16.30;70.90;;;;;;4845452;29;20049;-76
2022/12/30 16:12:59;;;;;;;9.30;1.70;;;16.40;71.00;;;;;;4845624;29;20054;-76
2022/12/30 16:15:43;;;;;;;12.05;2.30;;;16.40;71.00;;;;;;4855956;29;20057;-77
2022/12/30 16:18:21;;;;;;;8.10;1.80;;;16.40;71.10;;;;;;4863928;29;20057;-79
2022/12/30 16:20:50;;;;;;;10.93;1.70;;;16.40;71.00;;;;;;4863488;29;20129;-74
2022/12/30 16:23:19;;;;;;;13.73;2.45;;;16.40;71.20;;;;;;4862447;29;20053;-74
2022/12/30 16:25:54;;;;;;;12.52;1.92;;;16.40;71.20;;;;;;4850339;29;20064;-74
2022/12/30 16:28:42;;;;;;;11.93;1.48;;;16.40;71.50;;;;;;4845348;29;20133;-75
2022/12/30 16:31:13;;;;;;;8.23;2.13;;;16.30;71.50;;;;;;4845307;29;20048;-75
2022/12/30 16:33:40;;;;;;;9.98;1.77;;;16.30;71.50;;;;;;4844958;29;20053;-74
2022/12/30 16:36:13;;;;;;;8.60;1.88;;;16.20;71.50;;;;;;4860393;29;20049;-74
2022/12/30 16:38:52;;;;;;;10.65;2.10;;;16.20;71.50;;;;;;4863406;29;20456;-75
2022/12/30 16:41:23;;;;;;;9.55;2.05;;;16.20;71.60;;;;;;4863355;29;20038;-76
2022/12/30 16:43:57;;;;;;;5.78;1.40;;;16.10;71.50;;;;;;4863744;29;20041;-75
2022/12/30 16:46:26;;;;;;;12.50;2.03;;;16.10;71.50;;;;;;4845241;29;20331;-75
2022/12/30 16:48:52;;;;;;;14.63;2.03;;;16.10;71.50;;;;;;4828934;29;20058;-75
2022/12/30 16:51:34;;;;;;;11.75;1.55;;;16.20;71.60;;;;;;4844739;29;20101;-76
2022/12/30 16:54:03;;;;;;;18.30;1.60;;;16.10;71.70;;;;;;4844842;29;20134;-71
2022/12/30 16:56:28;;;;;;;10.15;1.20;;;16.10;71.10;;;;;;4861709;29;20033;-74
2022/12/30 16:58:54;;;;;;;9.32;1.67;;;16.10;71.00;;;;;;4862181;29;20128;-74
2022/12/30 17:05:00;;;;;;;6.05;1.35;;;16.10;69.50;;;;;;5688568;23;19924;-73
2022/12/30 17:07:31;;;;;;;7.25;1.38;;;16.10;68.90;;;;;;4880517;29;20128;-72
2022/12/30 17:12:47;;;;;;;7.43;0.98;;;16.00;68.60;;;;;;4880871;29;20045;-77
2022/12/30 17:15:13;;;;;;;3.65;0.93;;;15.90;68.50;;;;;;4881186;29;20376;-78
2022/12/30 17:17:38;;;;;;;8.40;1.10;;;15.80;68.50;;;;;;4880365;29;20057;-77
2022/12/30 17:20:05;;;;;;;4.95;1.00;;;15.80;68.70;;;;;;4877754;29;20048;-78
2022/12/30 17:22:31;;;;;;;6.10;1.13;;;15.80;68.60;;;;;;4878866;29;20057;-77
2022/12/30 17:24:56;;;;;;;8.80;1.08;;;15.70;68.70;;;;;;4881461;29;20053;-75
2022/12/30 17:27:25;;;;;;;3.78;0.70;;;15.80;68.80;;;;;;4881049;29;20364;-75
2022/12/30 17:29:51;;;;;;;6.40;0.88;;;15.70;68.80;;;;;;4873477;29;20125;-76
2022/12/30 17:32:34;;;;;;;3.63;0.50;;;15.70;69.10;;;;;;4862859;29;20045;-75
2022/12/30 17:35:00;;;;;;;5.78;0.65;;;15.70;69.30;;;;;;4862700;29;20061;-76
2022/12/30 17:37:26;;;;;;;5.05;0.47;;;15.60;69.40;;;;;;4863114;29;20563;-76
2022/12/30 17:39:52;;;;;;;4.55;0.38;;;15.60;69.60;;;;;;4867956;29;20057;-76
2022/12/30 17:42:19;;;;;;;6.78;0.88;;;15.60;69.70;;;;;;4880398;29;20057;-76
2022/12/30 17:44:45;;;;;;;3.75;0.52;;;15.60;69.70;;;;;;4881337;29;20060;-75
2022/12/30 17:47:14;;;;;;;2.47;0.60;;;15.50;69.70;;;;;;4881469;29;20048;-77
2022/12/30 17:49:40;;;;;;;3.00;0.30;;;15.60;69.70;;;;;;4875976;29;20125;-77
2022/12/30 17:52:07;;;;;;;1.95;0.32;;;15.50;69.70;;;;;;4862424;29;20057;-76
2022/12/30 17:54:33;;;;;;;1.15;0.30;;;15.50;69.70;;;;;;4862668;29;20069;-77
2022/12/30 17:57:02;;;;;;;1.10;0.10;;;15.50;69.70;;;;;;4862935;29;20050;-77
2022/12/30 17:59:28;;;;;;;5.80;0.43;;;15.50;69.70;;;;;;4864244;29;20088;-78
2022/12/30 18:01:54;;;;;;;1.30;0.20;;;15.50;69.80;;;;;;4880776;29;20045;-77
2022/12/30 18:04:22;;;;;;;1.40;0.28;;;15.50;69.80;;;;;;4880688;29;20064;-76
2022/12/30 18:06:48;;;;;;;1.73;0.40;;;15.40;69.60;;;;;;4896313;29;20059;-78
2022/12/30 18:09:14;;;;;;;5.75;0.70;;;15.20;68.80;;;;;;4898748;29;20052;-74
